Time;durP1;ratioP1;P1;durP2;ratioP2;P2;SDS_P1;SDS_P2;PMS_P1;PMS_P2;Temp;Humidity;BMP_temperature;BMP_pressure;BME280_temperature;BME280_humidity;BME280_pressure;Samples;Min_cycle;Max_cycle;Signal;HPM_P1;HPM_P2
2020/12/20 00:00:34;;;;;;;15.68;7.53;;;5.60;99.90;;;;;;4983846;28;20223;-68
2020/12/20 00:02:59;;;;;;;15.57;7.72;;;5.60;99.90;;;;;;4983219;28;20211;-69
2020/12/20 00:05:26;;;;;;;16.77;8.30;;;5.60;99.90;;;;;;4983289;28;21089;-68
2020/12/20 00:07:53;;;;;;;20.20;8.18;;;5.60;99.90;;;;;;4982144;28;20705;-68
2020/12/20 00:10:20;;;;;;;16.15;7.68;;;5.60;99.90;;;;;;4982578;28;20191;-69
2020/12/20 00:12:46;;;;;;;13.40;7.70;;;5.60;99.90;;;;;;4983768;28;20206;-68
2020/12/20 00:15:12;;;;;;;16.48;7.50;;;5.60;99.90;;;;;;4983377;28;20209;-69
2020/12/20 00:17:38;;;;;;;13.80;6.88;;;5.60;99.90;;;;;;4981662;28;20211;-69
2020/12/20 00:20:06;;;;;;;13.75;7.28;;;5.60;99.90;;;;;;4984773;28;20208;-68
2020/12/20 00:22:32;;;;;;;13.80;7.00;;;5.60;99.90;;;;;;4981231;28;20223;-68
2020/12/20 00:24:58;;;;;;;13.48;7.00;;;5.60;99.90;;;;;;4979141;28;20655;-68
2020/12/20 00:27:24;;;;;;;13.32;6.78;;;5.60;99.90;;;;;;4979129;28;20191;-67
2020/12/20 00:29:50;;;;;;;12.80;6.35;;;5.60;99.90;;;;;;4980257;28;20240;-67
2020/12/20 00:32:16;;;;;;;12.52;5.80;;;5.50;99.90;;;;;;4983051;28;20641;-68
2020/12/20 00:34:43;;;;;;;14.65;6.45;;;5.60;99.90;;;;;;4979457;28;20264;-69
2020/12/20 00:37:09;;;;;;;15.02;7.05;;;5.60;99.90;;;;;;4981166;28;20204;-68
2020/12/20 00:39:35;;;;;;;12.55;6.65;;;5.60;99.90;;;;;;4978488;28;20858;-68
2020/12/20 00:42:03;;;;;;;13.98;6.68;;;5.50;99.90;;;;;;4980130;28;20585;-70
2020/12/20 00:44:29;;;;;;;14.30;6.60;;;5.50;99.90;;;;;;4983407;28;20261;-68
2020/12/20 00:46:56;;;;;;;17.98;6.60;;;5.50;99.90;;;;;;4980657;28;20267;-69
2020/12/20 00:49:23;;;;;;;15.30;6.68;;;5.50;99.90;;;;;;4982195;28;20210;-69
2020/12/20 00:51:49;;;;;;;12.35;6.72;;;5.60;99.90;;;;;;4983419;28;20565;-68
2020/12/20 00:54:14;;;;;;;14.35;6.93;;;5.50;99.90;;;;;;4977648;28;20211;-68
2020/12/20 00:56:40;;;;;;;17.50;7.22;;;5.50;99.90;;;;;;4978181;28;20215;-68
2020/12/20 00:59:06;;;;;;;15.45;7.28;;;5.50;99.90;;;;;;4979963;28;20624;-68
2020/12/20 01:01:31;;;;;;;13.52;7.13;;;5.50;99.90;;;;;;4979675;28;20558;-69
2020/12/20 01:03:57;;;;;;;13.02;6.85;;;5.60;99.90;;;;;;4977966;28;20242;-69
2020/12/20 01:06:24;;;;;;;13.43;6.95;;;5.50;99.90;;;;;;4977731;28;20306;-68
2020/12/20 01:08:51;;;;;;;13.32;6.82;;;5.50;99.90;;;;;;4980645;28;20227;-68
2020/12/20 01:11:18;;;;;;;16.02;6.60;;;5.50;99.90;;;;;;4980003;28;20227;-68
2020/12/20 01:13:45;;;;;;;15.48;7.93;;;5.50;99.90;;;;;;4978913;28;20632;-68
2020/12/20 01:16:15;;;;;;;20.13;8.00;;;5.50;99.90;;;;;;4980865;28;20204;-69
2020/12/20 01:18:41;;;;;;;19.08;8.30;;;5.50;99.90;;;;;;4981070;28;20195;-69
2020/12/20 01:21:07;;;;;;;22.63;9.23;;;5.50;99.90;;;;;;4978834;28;20199;-68
2020/12/20 01:23:32;;;;;;;16.45;8.40;;;5.60;99.90;;;;;;4978903;28;20694;-68
2020/12/20 01:26:02;;;;;;;19.08;8.55;;;5.60;99.90;;;;;;4976758;28;21012;-69
2020/12/20 01:28:28;;;;;;;19.63;9.27;;;5.60;99.90;;;;;;4976981;28;20203;-68
2020/12/20 01:30:55;;;;;;;21.13;8.73;;;5.50;99.90;;;;;;4976610;28;20283;-68
2020/12/20 01:33:21;;;;;;;18.90;8.98;;;5.60;99.90;;;;;;4980332;28;20289;-70
2020/12/20 01:35:47;;;;;;;22.27;9.43;;;5.60;99.90;;;;;;4980147;28;20227;-68
2020/12/20 01:38:13;;;;;;;21.45;8.93;;;5.50;99.90;;;;;;4978096;28;20666;-69
2020/12/20 01:40:38;;;;;;;19.55;8.60;;;5.60;99.90;;;;;;4980165;28;20223;-68
2020/12/20 01:43:04;;;;;;;19.23;9.18;;;5.60;99.90;;;;;;4980177;28;20709;-68
2020/12/20 01:45:30;;;;;;;22.48;8.68;;;5.60;99.90;;;;;;4978639;28;20282;-68
2020/12/20 01:47:56;;;;;;;23.92;9.25;;;5.50;99.90;;;;;;4979337;28;20184;-68
2020/12/20 01:50:22;;;;;;;20.98;9.07;;;5.60;99.90;;;;;;4979702;28;20192;-69
2020/12/20 01:52:48;;;;;;;18.55;8.57;;;5.60;99.90;;;;;;4980749;28;20258;-69
2020/12/20 01:55:18;;;;;;;17.80;8.60;;;5.60;99.90;;;;;;4975979;28;20203;-68
2020/12/20 01:57:44;;;;;;;23.67;8.95;;;5.60;99.90;;;;;;4976251;28;20277;-68
2020/12/20 02:00:10;;;;;;;20.40;9.02;;;5.60;99.90;;;;;;4975138;28;20734;-68
2020/12/20 02:02:35;;;;;;;20.48;9.30;;;5.60;99.90;;;;;;4979659;28;20270;-69
2020/12/20 02:05:01;;;;;;;22.55;9.18;;;5.70;99.90;;;;;;4988112;23;20724;-69
2020/12/20 02:07:27;;;;;;;20.48;8.82;;;5.70;99.90;;;;;;4979955;28;20200;-70
2020/12/20 02:09:53;;;;;;;24.00;9.02;;;5.70;99.90;;;;;;4981505;28;20207;-69
2020/12/20 02:12:18;;;;;;;21.73;9.55;;;5.70;99.90;;;;;;4977501;28;20307;-69
2020/12/20 02:14:44;;;;;;;22.10;8.80;;;5.70;99.90;;;;;;4976866;28;20215;-69
2020/12/20 02:17:10;;;;;;;23.08;9.65;;;5.80;99.90;;;;;;4981430;28;20776;-69
2020/12/20 02:19:35;;;;;;;19.00;8.68;;;5.80;99.90;;;;;;4976678;28;20195;-69
2020/12/20 02:22:01;;;;;;;28.15;11.30;;;5.80;99.90;;;;;;4978779;28;20265;-69
2020/12/20 02:24:28;;;;;;;28.38;10.77;;;5.80;99.90;;;;;;4982640;28;20200;-69
2020/12/20 02:26:54;;;;;;;28.08;10.88;;;5.80;99.90;;;;;;4980278;28;20215;-69
2020/12/20 02:29:19;;;;;;;26.98;10.90;;;5.80;99.90;;;;;;4981229;28;20730;-69
2020/12/20 02:31:45;;;;;;;30.25;11.65;;;5.80;99.90;;;;;;4979751;28;20244;-69
2020/12/20 02:34:11;;;;;;;30.55;10.48;;;5.80;99.90;;;;;;4981334;28;20203;-69
2020/12/20 02:36:37;;;;;;;29.50;11.40;;;5.90;99.90;;;;;;4981331;28;20208;-69
2020/12/20 02:39:07;;;;;;;26.02;11.90;;;5.90;99.90;;;;;;4977755;28;20253;-69
2020/12/20 02:41:34;;;;;;;25.77;11.05;;;5.90;99.90;;;;;;4981232;28;20191;-69
2020/12/20 02:44:00;;;;;;;26.60;11.23;;;5.90;99.90;;;;;;4979437;28;20696;-69
2020/12/20 02:46:27;;;;;;;25.48;11.70;;;6.00;99.90;;;;;;4984044;28;20206;-69
2020/12/20 02:48:53;;;;;;;26.20;11.20;;;5.90;99.90;;;;;;4981171;28;20625;-69
2020/12/20 02:51:18;;;;;;;27.00;11.68;;;5.90;99.90;;;;;;4980078;28;20239;-69
2020/12/20 02:53:45;;;;;;;31.67;12.95;;;5.90;99.90;;;;;;4980084;28;20295;-69
2020/12/20 02:56:13;;;;;;;33.45;12.38;;;5.90;99.90;;;;;;4977755;28;20203;-69
2020/12/20 02:58:39;;;;;;;30.08;11.38;;;5.90;99.90;;;;;;4979053;28;20195;-69
2020/12/20 03:01:05;;;;;;;31.70;12.00;;;5.90;99.90;;;;;;4977398;28;20298;-69
2020/12/20 03:03:30;;;;;;;28.88;11.20;;;5.90;99.90;;;;;;4981118;28;20933;-69
2020/12/20 03:05:56;;;;;;;24.58;10.93;;;5.90;99.90;;;;;;4995401;28;20286;-69
2020/12/20 03:08:22;;;;;;;28.65;11.02;;;5.90;99.90;;;;;;4981791;28;20231;-69
2020/12/20 03:10:47;;;;;;;27.73;11.88;;;6.00;99.90;;;;;;4977598;28;20201;-69
2020/12/20 03:13:13;;;;;;;23.58;10.75;;;6.00;99.90;;;;;;4977154;28;20212;-69
2020/12/20 03:15:41;;;;;;;29.02;12.05;;;6.00;99.90;;;;;;4973565;28;20229;-69
2020/12/20 03:18:07;;;;;;;32.63;12.85;;;6.00;99.90;;;;;;4978656;28;20258;-69
2020/12/20 03:20:33;;;;;;;29.20;11.52;;;6.00;99.90;;;;;;4972387;28;20196;-69
2020/12/20 03:22:59;;;;;;;31.58;12.30;;;6.00;99.90;;;;;;4969190;28;20212;-69
2020/12/20 03:25:25;;;;;;;32.80;13.30;;;6.00;99.90;;;;;;4974932;28;20261;-69
2020/12/20 03:27:50;;;;;;;37.05;13.32;;;5.90;99.90;;;;;;4978475;28;20669;-69
2020/12/20 03:30:16;;;;;;;31.75;11.45;;;5.90;99.90;;;;;;4975346;28;20207;-69
2020/12/20 03:32:42;;;;;;;37.90;14.07;;;6.00;99.90;;;;;;4975179;28;20209;-69
2020/12/20 03:35:07;;;;;;;36.90;14.13;;;6.00;99.90;;;;;;4989945;28;20211;-69
2020/12/20 03:37:33;;;;;;;37.97;13.68;;;6.00;99.90;;;;;;4973307;28;20205;-70
2020/12/20 03:39:59;;;;;;;40.05;15.27;;;6.00;99.90;;;;;;4974428;28;20261;-69
2020/12/20 03:42:25;;;;;;;40.50;13.18;;;5.90;99.90;;;;;;4973281;28;20233;-69
2020/12/20 03:44:50;;;;;;;41.97;15.10;;;5.90;99.90;;;;;;4973073;28;20990;-69
2020/12/20 03:47:16;;;;;;;42.90;15.05;;;5.90;99.90;;;;;;4978111;28;20243;-69
2020/12/20 03:49:42;;;;;;;39.92;15.27;;;6.00;99.90;;;;;;4979292;28;20200;-69
2020/12/20 03:52:07;;;;;;;42.53;15.30;;;6.00;99.90;;;;;;4974076;28;20200;-69
2020/12/20 03:54:33;;;;;;;43.28;14.98;;;6.00;99.90;;;;;;4978753;28;20211;-69
2020/12/20 03:56:58;;;;;;;44.35;15.10;;;6.00;99.90;;;;;;4977271;28;20287;-69
2020/12/20 03:59:24;;;;;;;41.97;14.40;;;6.00;99.90;;;;;;4978304;28;20208;-69
2020/12/20 04:01:50;;;;;;;41.30;14.68;;;6.00;99.90;;;;;;4982904;28;20253;-70
2020/12/20 04:04:16;;;;;;;43.50;15.80;;;6.00;99.90;;;;;;4976819;28;20302;-69
2020/12/20 04:06:42;;;;;;;46.53;15.73;;;6.00;99.90;;;;;;4975359;28;20200;-69
2020/12/20 04:09:07;;;;;;;42.55;16.58;;;6.00;99.90;;;;;;4976840;28;20206;-69
2020/12/20 04:11:33;;;;;;;41.05;15.30;;;6.00;99.90;;;;;;4977573;28;20199;-69
2020/12/20 04:13:59;;;;;;;38.72;14.98;;;6.00;99.90;;;;;;4974206;28;20270;-69
2020/12/20 04:16:24;;;;;;;39.38;15.95;;;6.00;99.90;;;;;;4978592;28;20208;-69
2020/12/20 04:18:50;;;;;;;42.03;15.23;;;6.00;99.90;;;;;;4972659;28;20905;-69
2020/12/20 04:21:16;;;;;;;38.65;14.75;;;6.10;99.90;;;;;;4975922;28;20811;-69
2020/12/20 04:23:41;;;;;;;42.80;14.82;;;6.10;99.90;;;;;;4976759;28;20460;-69
2020/12/20 04:26:07;;;;;;;36.78;14.20;;;6.10;99.90;;;;;;4974311;28;20195;-69
2020/12/20 04:28:33;;;;;;;38.63;15.90;;;6.10;99.90;;;;;;4980325;28;20210;-69
2020/12/20 04:30:59;;;;;;;34.75;15.30;;;6.10;99.90;;;;;;4977668;28;20199;-69
2020/12/20 04:33:24;;;;;;;39.97;15.52;;;6.10;99.90;;;;;;4974986;28;20200;-69
2020/12/20 04:35:50;;;;;;;41.25;15.30;;;6.10;99.90;;;;;;4976768;28;20196;-69
2020/12/20 04:38:15;;;;;;;37.78;15.23;;;6.10;99.90;;;;;;4976340;28;20583;-69
2020/12/20 04:40:41;;;;;;;37.40;16.05;;;6.10;99.90;;;;;;4974532;28;20269;-69
2020/12/20 04:43:09;;;;;;;43.70;15.15;;;6.10;99.90;;;;;;4976088;28;20304;-69
2020/12/20 04:45:35;;;;;;;43.90;16.48;;;6.10;99.90;;;;;;4972822;28;20231;-70
2020/12/20 04:48:03;;;;;;;40.25;15.18;;;6.10;99.90;;;;;;4976033;28;20206;-70
2020/12/20 04:50:29;;;;;;;40.90;15.40;;;6.10;99.90;;;;;;4975011;28;20231;-70
2020/12/20 04:52:57;;;;;;;39.90;15.50;;;6.10;99.90;;;;;;4975964;28;20200;-70
2020/12/20 04:55:24;;;;;;;34.55;14.52;;;6.10;99.90;;;;;;4975095;28;20303;-69
2020/12/20 04:57:51;;;;;;;37.88;14.50;;;6.20;99.90;;;;;;4974265;28;20208;-69
2020/12/20 05:00:18;;;;;;;33.67;15.18;;;6.20;99.90;;;;;;4972739;28;21063;-69
2020/12/20 05:02:44;;;;;;;32.65;13.70;;;6.20;99.90;;;;;;4971599;28;20931;-69
2020/12/20 05:05:10;;;;;;;34.25;13.50;;;6.30;99.90;;;;;;4973129;28;20290;-70
2020/12/20 05:07:35;;;;;;;37.00;13.85;;;6.30;99.90;;;;;;4975876;28;20191;-69
2020/12/20 05:10:03;;;;;;;34.45;13.85;;;6.20;99.90;;;;;;4974295;28;20198;-69
2020/12/20 05:12:34;;;;;;;33.88;14.07;;;6.20;99.90;;;;;;4977205;28;20215;-70
2020/12/20 05:15:23;;;;;;;36.90;14.75;;;6.20;99.90;;;;;;4976328;28;20694;-69
2020/12/20 05:18:02;;;;;;;30.08;12.95;;;6.20;99.90;;;;;;4977097;28;20200;-69
2020/12/20 05:20:54;;;;;;;30.38;13.70;;;6.30;99.90;;;;;;4969484;28;20358;-69
2020/12/20 05:23:19;;;;;;;34.20;13.13;;;6.30;99.90;;;;;;4969606;28;20351;-69
2020/12/20 05:25:45;;;;;;;35.92;13.60;;;6.30;99.90;;;;;;4972551;28;20677;-69
2020/12/20 05:28:18;;;;;;;28.90;11.93;;;6.30;99.90;;;;;;4973740;28;20192;-69
2020/12/20 05:30:46;;;;;;;30.00;12.13;;;6.30;99.90;;;;;;4970666;28;20342;-70
2020/12/20 05:33:29;;;;;;;38.53;13.27;;;6.30;99.90;;;;;;4972616;28;20753;-69
2020/12/20 05:36:08;;;;;;;38.58;13.10;;;6.30;99.90;;;;;;4970472;28;20204;-69
2020/12/20 05:38:35;;;;;;;29.38;11.82;;;6.30;99.90;;;;;;4974429;28;20199;-70
2020/12/20 05:41:02;;;;;;;28.27;11.60;;;6.30;99.90;;;;;;4975022;28;20738;-69
2020/12/20 05:43:28;;;;;;;27.23;11.85;;;6.30;99.90;;;;;;4974051;28;20207;-69
2020/12/20 05:45:55;;;;;;;26.30;10.18;;;6.30;99.90;;;;;;4993457;28;20215;-69
2020/12/20 05:48:23;;;;;;;29.70;11.10;;;6.30;99.90;;;;;;4973308;28;20595;-70
2020/12/20 05:51:02;;;;;;;29.63;11.25;;;6.30;99.90;;;;;;4974666;28;20645;-69
2020/12/20 05:53:32;;;;;;;30.15;11.05;;;6.30;99.90;;;;;;4973037;28;20204;-70
2020/12/20 05:56:00;;;;;;;24.77;10.93;;;6.30;99.90;;;;;;4974717;28;20210;-69
2020/12/20 05:58:33;;;;;;;28.77;9.70;;;6.30;99.90;;;;;;4976205;28;20267;-69
2020/12/20 06:00:59;;;;;;;26.35;10.10;;;6.30;99.90;;;;;;4991830;28;20204;-70
2020/12/20 06:03:26;;;;;;;25.08;10.48;;;6.40;99.90;;;;;;4978600;28;20212;-69
2020/12/20 06:05:52;;;;;;;32.85;10.60;;;6.30;99.90;;;;;;4976027;28;20231;-69
2020/12/20 06:08:22;;;;;;;23.85;9.75;;;6.40;99.90;;;;;;4977052;28;20553;-69
2020/12/20 06:10:50;;;;;;;30.95;11.35;;;6.40;99.90;;;;;;4978896;28;20211;-69
2020/12/20 06:13:17;;;;;;;28.48;11.20;;;6.40;99.90;;;;;;4979002;28;20207;-69
2020/12/20 06:15:44;;;;;;;24.50;10.32;;;6.40;99.90;;;;;;4974630;28;20208;-69
2020/12/20 06:18:12;;;;;;;31.75;10.30;;;6.40;99.90;;;;;;4978225;28;20289;-69
2020/12/20 06:20:53;;;;;;;38.83;10.95;;;6.40;99.90;;;;;;4978973;28;20206;-69
2020/12/20 06:23:24;;;;;;;30.23;11.02;;;6.40;99.90;;;;;;4976778;28;20219;-69
2020/12/20 06:25:52;;;;;;;26.15;10.93;;;6.40;99.90;;;;;;4979170;28;20560;-69
2020/12/20 06:28:39;;;;;;;39.88;12.68;;;6.40;99.90;;;;;;4975200;28;20195;-70
2020/12/20 06:31:05;;;;;;;32.58;11.02;;;6.40;99.90;;;;;;4976514;28;20274;-69
2020/12/20 06:33:31;;;;;;;30.35;10.52;;;6.40;99.90;;;;;;4979213;28;20845;-69
2020/12/20 06:35:57;;;;;;;32.10;11.88;;;6.40;99.90;;;;;;4974825;28;20565;-69
2020/12/20 06:38:24;;;;;;;38.70;13.05;;;6.40;99.90;;;;;;4982273;28;20206;-69
2020/12/20 06:40:50;;;;;;;34.22;11.50;;;6.40;99.90;;;;;;4979221;28;20211;-69
2020/12/20 06:43:32;;;;;;;24.65;9.93;;;6.50;99.90;;;;;;4982672;28;20218;-69
2020/12/20 06:45:59;;;;;;;32.95;10.77;;;6.50;99.90;;;;;;4977986;28;20729;-69
2020/12/20 06:48:38;;;;;;;33.15;10.93;;;6.40;99.90;;;;;;4979712;28;20206;-69
2020/12/20 06:51:08;;;;;;;33.45;11.57;;;6.50;99.90;;;;;;4979344;28;20206;-69
2020/12/20 06:53:47;;;;;;;40.58;11.52;;;6.50;99.90;;;;;;4982537;28;20543;-69
2020/12/20 06:56:21;;;;;;;23.77;9.55;;;6.50;99.90;;;;;;4979903;28;20207;-69
2020/12/20 06:58:51;;;;;;;29.45;10.63;;;6.60;99.90;;;;;;4973725;28;20927;-69
2020/12/20 07:01:35;;;;;;;33.85;10.15;;;6.50;99.90;;;;;;4979379;28;20215;-69
2020/12/20 07:04:01;;;;;;;30.48;10.57;;;6.50;99.90;;;;;;4981013;28;20235;-69
2020/12/20 07:06:27;;;;;;;30.45;9.90;;;6.60;99.90;;;;;;4977169;28;20197;-69
2020/12/20 07:09:04;;;;;;;21.58;9.45;;;6.60;99.90;;;;;;4995230;28;20711;-69
2020/12/20 07:11:30;;;;;;;26.67;9.90;;;6.70;99.90;;;;;;4976983;28;20192;-69
2020/12/20 07:13:56;;;;;;;27.02;9.07;;;6.70;99.90;;;;;;4980604;28;20203;-69
2020/12/20 07:16:38;;;;;;;32.85;10.00;;;6.70;99.90;;;;;;4975374;28;20598;-69
2020/12/20 07:19:05;;;;;;;31.88;8.88;;;6.80;99.90;;;;;;4980570;28;20202;-69
2020/12/20 07:21:58;;;;;;;25.20;8.98;;;6.80;99.90;;;;;;4984103;28;20627;-69
2020/12/20 07:24:29;;;;;;;20.50;8.20;;;6.80;99.90;;;;;;4978183;28;21054;-69
2020/12/20 07:27:00;;;;;;;18.60;8.15;;;6.80;99.90;;;;;;4980291;28;20203;-69
2020/12/20 07:29:27;;;;;;;19.00;8.18;;;6.80;99.90;;;;;;4980459;28;20204;-69
2020/12/20 07:31:55;;;;;;;18.35;7.40;;;6.90;99.90;;;;;;4981841;28;20207;-69
2020/12/20 07:34:22;;;;;;;21.77;7.90;;;6.90;99.90;;;;;;4983654;28;20199;-69
2020/12/20 07:36:48;;;;;;;22.88;8.10;;;6.90;99.90;;;;;;4983611;28;20285;-69
2020/12/20 07:39:14;;;;;;;24.10;7.88;;;6.90;99.90;;;;;;4979124;28;20263;-69
2020/12/20 07:41:40;;;;;;;22.17;8.15;;;6.90;99.90;;;;;;4982156;28;20200;-69
2020/12/20 07:44:07;;;;;;;17.35;7.82;;;6.90;99.90;;;;;;4981898;28;20212;-69
2020/12/20 07:46:33;;;;;;;19.63;7.70;;;6.90;99.90;;;;;;4980113;28;20211;-69
2020/12/20 07:49:04;;;;;;;18.77;8.10;;;6.90;99.90;;;;;;4980332;28;20656;-69
2020/12/20 07:51:30;;;;;;;29.20;8.63;;;7.00;99.90;;;;;;4982392;28;20713;-69
2020/12/20 07:53:57;;;;;;;23.58;9.57;;;7.00;99.90;;;;;;4979840;28;20257;-69
2020/12/20 07:56:28;;;;;;;21.38;7.20;;;7.00;99.90;;;;;;4977764;28;20282;-69
2020/12/20 07:59:04;;;;;;;19.02;7.65;;;7.00;99.90;;;;;;4976608;28;20200;-68
2020/12/20 08:01:31;;;;;;;19.38;7.30;;;7.00;99.90;;;;;;4975086;28;20257;-69
2020/12/20 08:04:03;;;;;;;16.20;7.60;;;7.00;99.90;;;;;;4978270;28;20219;-69
2020/12/20 08:06:29;;;;;;;19.75;7.90;;;7.00;99.90;;;;;;4975966;28;21007;-68
2020/12/20 08:09:24;;;;;;;22.05;8.52;;;7.00;99.90;;;;;;4976720;28;20200;-68
2020/12/20 08:11:51;;;;;;;21.38;8.60;;;7.00;99.90;;;;;;4965365;28;21183;-69
2020/12/20 08:14:19;;;;;;;20.83;8.88;;;7.10;99.90;;;;;;4973565;28;20211;-69
2020/12/20 08:16:46;;;;;;;23.70;8.95;;;7.00;99.90;;;;;;4974038;28;20207;-69
2020/12/20 08:19:19;;;;;;;25.92;8.48;;;7.10;99.90;;;;;;4974698;28;20207;-71
2020/12/20 08:21:52;;;;;;;20.77;8.48;;;7.10;99.90;;;;;;4975422;28;20792;-69
2020/12/20 08:24:20;;;;;;;21.83;7.85;;;7.10;99.90;;;;;;4976971;28;20799;-69
2020/12/20 08:26:46;;;;;;;27.40;8.98;;;7.10;99.90;;;;;;4971702;28;20230;-69
2020/12/20 08:29:14;;;;;;;20.77;8.02;;;7.20;99.90;;;;;;4975478;28;20509;-69
2020/12/20 08:31:39;;;;;;;23.55;8.18;;;7.20;99.90;;;;;;4979074;28;20660;-69
2020/12/20 08:34:22;;;;;;;16.25;7.50;;;7.20;99.90;;;;;;4976644;28;20208;-69
2020/12/20 08:36:51;;;;;;;23.45;8.45;;;7.20;99.90;;;;;;4968057;28;20212;-69
2020/12/20 08:39:21;;;;;;;21.25;7.78;;;7.20;99.90;;;;;;4966321;28;20219;-69
2020/12/20 08:41:46;;;;;;;19.73;7.93;;;7.20;99.90;;;;;;4968628;28;20740;-70
2020/12/20 08:44:13;;;;;;;30.42;8.82;;;7.30;99.90;;;;;;4964484;28;20213;-70
2020/12/20 08:46:41;;;;;;;24.23;7.57;;;7.20;99.90;;;;;;4968988;28;20670;-69
2020/12/20 08:49:21;;;;;;;22.55;8.00;;;7.20;99.90;;;;;;4970239;28;20268;-70
2020/12/20 08:51:48;;;;;;;21.75;8.10;;;7.20;99.90;;;;;;4971296;28;20203;-69
2020/12/20 08:54:29;;;;;;;19.95;8.18;;;7.30;99.90;;;;;;4968570;28;20196;-69
2020/12/20 08:56:57;;;;;;;21.48;7.82;;;7.30;99.90;;;;;;4973441;28;20199;-70
2020/12/20 08:59:49;;;;;;;22.83;8.48;;;7.40;99.90;;;;;;4971041;28;20265;-69
2020/12/20 09:02:25;;;;;;;19.02;7.93;;;7.50;99.90;;;;;;4980707;28;20637;-70
2020/12/20 09:04:59;;;;;;;21.70;7.93;;;7.40;99.90;;;;;;4973144;28;20274;-70
2020/12/20 09:07:36;;;;;;;22.77;7.40;;;7.40;99.90;;;;;;4967181;28;20277;-70
2020/12/20 09:10:30;;;;;;;13.88;7.03;;;7.30;99.90;;;;;;4969955;28;20206;-70
2020/12/20 09:13:00;;;;;;;17.20;7.40;;;7.20;99.90;;;;;;4970568;28;21058;-70
2020/12/20 09:15:29;;;;;;;19.42;7.80;;;7.20;99.90;;;;;;4969652;28;20262;-69
2020/12/20 09:17:58;;;;;;;21.65;7.85;;;7.20;99.90;;;;;;4970481;28;20209;-69
2020/12/20 09:20:27;;;;;;;23.40;8.13;;;7.20;99.90;;;;;;4964713;28;20294;-69
2020/12/20 09:22:58;;;;;;;19.73;7.93;;;7.20;99.90;;;;;;4973940;28;20705;-69
2020/12/20 09:25:43;;;;;;;20.20;8.45;;;7.20;99.90;;;;;;4969588;28;20210;-69
2020/12/20 09:28:18;;;;;;;23.02;7.95;;;7.20;99.90;;;;;;4971354;28;20191;-70
2020/12/20 09:30:49;;;;;;;22.10;8.50;;;7.10;99.90;;;;;;4971874;28;20964;-70
2020/12/20 09:33:27;;;;;;;19.35;8.50;;;7.20;99.90;;;;;;4973872;28;20215;-69
2020/12/20 09:35:54;;;;;;;18.27;7.28;;;7.20;99.90;;;;;;4968947;28;20226;-70
2020/12/20 09:38:20;;;;;;;23.88;8.75;;;7.20;99.90;;;;;;4976888;28;20716;-70
2020/12/20 09:40:46;;;;;;;21.75;8.50;;;7.20;99.90;;;;;;4973640;28;20203;-70
2020/12/20 09:43:21;;;;;;;23.08;8.65;;;7.20;99.90;;;;;;4973815;28;20211;-70
2020/12/20 09:45:47;;;;;;;33.17;8.05;;;7.20;99.90;;;;;;4973319;28;20838;-69
2020/12/20 09:48:13;;;;;;;24.05;8.32;;;7.20;99.90;;;;;;4974825;28;20207;-69
2020/12/20 09:50:38;;;;;;;21.80;8.25;;;7.20;99.90;;;;;;4978663;28;20191;-69
2020/12/20 09:53:04;;;;;;;24.70;8.57;;;7.20;99.90;;;;;;4973675;28;20206;-69
2020/12/20 09:55:31;;;;;;;22.65;8.57;;;7.20;99.90;;;;;;4968683;28;20204;-69
2020/12/20 09:57:57;;;;;;;28.23;8.93;;;7.20;99.90;;;;;;4972572;28;20196;-69
2020/12/20 10:00:23;;;;;;;33.53;8.80;;;7.20;99.90;;;;;;4969076;28;20211;-69
2020/12/20 10:02:49;;;;;;;27.85;9.02;;;7.20;99.90;;;;;;4975844;28;20649;-70
2020/12/20 10:05:15;;;;;;;25.33;9.10;;;7.20;99.90;;;;;;4972520;28;20235;-70
2020/12/20 10:07:40;;;;;;;39.78;8.85;;;7.20;99.90;;;;;;4975580;28;20693;-70
2020/12/20 10:10:06;;;;;;;22.77;8.25;;;7.20;99.90;;;;;;4973602;28;20589;-69
2020/12/20 10:12:32;;;;;;;31.55;10.68;;;7.30;99.90;;;;;;4974378;28;20561;-69
2020/12/20 10:14:59;;;;;;;29.15;8.30;;;7.20;99.90;;;;;;4972864;28;20212;-69
2020/12/20 10:17:25;;;;;;;22.08;9.13;;;7.30;99.90;;;;;;4957975;28;20946;-69
2020/12/20 10:19:52;;;;;;;29.55;9.43;;;7.30;99.90;;;;;;4973121;28;20564;-69
2020/12/20 10:22:19;;;;;;;32.20;8.90;;;7.30;99.90;;;;;;4976737;28;20203;-70
2020/12/20 10:24:44;;;;;;;30.55;9.85;;;7.30;99.90;;;;;;4972218;28;20266;-69
2020/12/20 10:27:10;;;;;;;22.58;9.40;;;7.30;99.90;;;;;;4973977;28;20204;-69
2020/12/20 10:29:36;;;;;;;27.92;10.73;;;7.30;99.90;;;;;;4971006;28;20204;-70
2020/12/20 10:32:01;;;;;;;31.83;9.10;;;7.40;99.90;;;;;;4969746;28;20203;-69
2020/12/20 10:34:27;;;;;;;18.27;8.25;;;7.30;99.90;;;;;;4967342;28;20203;-70
2020/12/20 10:36:53;;;;;;;33.65;10.48;;;7.30;99.90;;;;;;4973330;28;20196;-70
2020/12/20 10:39:19;;;;;;;24.20;9.85;;;7.40;99.90;;;;;;4966830;28;20255;-69
2020/12/20 10:41:46;;;;;;;21.30;9.07;;;7.40;99.90;;;;;;4967999;28;21012;-69
2020/12/20 10:44:11;;;;;;;41.08;19.08;;;7.40;99.90;;;;;;4964469;28;20272;-69
2020/12/20 10:46:37;;;;;;;26.33;10.27;;;7.40;99.90;;;;;;4962413;28;20289;-68
2020/12/20 10:49:04;;;;;;;29.48;10.23;;;7.40;99.90;;;;;;4966392;28;20201;-69
2020/12/20 10:51:30;;;;;;;29.17;10.00;;;7.40;99.90;;;;;;4970933;28;20212;-68
2020/12/20 10:53:58;;;;;;;30.92;10.13;;;7.30;99.90;;;;;;4963145;28;20309;-69
2020/12/20 10:56:24;;;;;;;29.25;10.18;;;7.40;99.90;;;;;;4969006;28;20208;-69
2020/12/20 10:58:50;;;;;;;25.23;10.93;;;7.40;99.90;;;;;;4965609;28;20571;-70
2020/12/20 11:01:20;;;;;;;28.58;12.43;;;7.40;99.90;;;;;;4964616;28;20963;-69
2020/12/20 11:03:50;;;;;;;32.65;14.90;;;7.40;99.90;;;;;;4969413;28;20891;-70
2020/12/20 11:06:23;;;;;;;25.55;10.75;;;7.40;99.90;;;;;;4967585;28;20204;-70
2020/12/20 11:08:50;;;;;;;22.45;8.98;;;7.40;99.90;;;;;;4963801;28;20235;-69
2020/12/20 11:11:16;;;;;;;23.45;9.10;;;7.40;99.90;;;;;;4966118;28;20316;-69
2020/12/20 11:13:43;;;;;;;23.65;9.77;;;7.40;99.90;;;;;;4965853;28;20208;-69
2020/12/20 11:16:16;;;;;;;29.83;11.77;;;7.40;99.90;;;;;;4966798;28;20215;-69
2020/12/20 11:18:44;;;;;;;25.67;9.60;;;7.40;99.90;;;;;;4965508;28;20211;-69
2020/12/20 11:21:19;;;;;;;23.70;10.70;;;7.40;99.90;;;;;;4965365;28;20211;-69
2020/12/20 11:23:46;;;;;;;27.90;10.98;;;7.40;99.90;;;;;;4965180;28;20936;-69
2020/12/20 11:26:14;;;;;;;26.35;10.60;;;7.40;99.90;;;;;;4964095;28;20208;-69
2020/12/20 11:28:41;;;;;;;28.40;12.75;;;7.50;99.90;;;;;;4963612;28;20199;-70
2020/12/20 11:31:09;;;;;;;24.10;9.32;;;7.50;99.90;;;;;;4963080;28;20239;-69
2020/12/20 11:33:35;;;;;;;26.38;8.15;;;7.50;99.90;;;;;;4963479;28;20257;-70
2020/12/20 11:36:01;;;;;;;29.15;9.60;;;7.50;99.90;;;;;;4964877;28;20262;-70
2020/12/20 11:38:26;;;;;;;19.33;7.95;;;7.50;99.90;;;;;;4964515;28;20697;-70
2020/12/20 11:40:52;;;;;;;34.10;8.82;;;7.50;99.90;;;;;;4963695;28;20200;-70
2020/12/20 11:43:18;;;;;;;21.63;8.27;;;7.60;99.90;;;;;;4966683;28;20215;-69
2020/12/20 11:45:45;;;;;;;19.88;7.57;;;7.60;99.90;;;;;;4964215;28;20276;-69
2020/12/20 11:48:14;;;;;;;25.05;7.43;;;7.50;99.90;;;;;;4958077;28;20207;-69
2020/12/20 11:50:40;;;;;;;33.50;9.50;;;7.50;99.90;;;;;;4961982;28;20204;-70
2020/12/20 11:53:06;;;;;;;23.80;7.82;;;7.60;99.90;;;;;;4965889;28;20255;-70
2020/12/20 11:55:32;;;;;;;25.27;7.75;;;7.60;99.90;;;;;;4963218;28;20219;-70
2020/12/20 11:57:58;;;;;;;26.23;7.88;;;7.50;99.90;;;;;;4962025;28;20233;-70
2020/12/20 12:00:25;;;;;;;20.25;6.82;;;7.60;99.90;;;;;;4965282;28;20211;-69
2020/12/20 12:02:52;;;;;;;21.58;6.90;;;7.60;99.90;;;;;;4962931;28;20211;-69
2020/12/20 12:05:18;;;;;;;17.52;7.18;;;7.60;99.90;;;;;;4963857;28;20254;-69
2020/12/20 12:07:43;;;;;;;16.73;6.90;;;7.60;99.90;;;;;;4971076;28;20748;-69
2020/12/20 12:10:09;;;;;;;17.95;6.20;;;7.60;99.90;;;;;;4970738;28;20212;-70
2020/12/20 12:12:35;;;;;;;18.92;6.38;;;7.60;99.90;;;;;;4968556;28;20199;-70
2020/12/20 12:15:01;;;;;;;19.73;6.47;;;7.60;99.90;;;;;;4969429;28;20227;-70
2020/12/20 12:17:26;;;;;;;17.60;6.15;;;7.60;99.90;;;;;;4972456;28;20309;-70
2020/12/20 12:19:52;;;;;;;27.08;7.13;;;7.60;99.90;;;;;;4972106;28;20246;-71
2020/12/20 12:22:18;;;;;;;18.65;5.60;;;7.60;99.90;;;;;;4975877;28;20215;-70
2020/12/20 12:24:43;;;;;;;27.60;7.50;;;7.60;99.90;;;;;;4973954;28;20206;-70
2020/12/20 12:27:09;;;;;;;18.25;6.78;;;7.60;99.90;;;;;;4968133;28;20934;-69
2020/12/20 12:29:35;;;;;;;20.08;6.45;;;7.60;99.90;;;;;;4972566;28;20258;-70
2020/12/20 12:32:01;;;;;;;25.85;7.30;;;7.60;99.90;;;;;;4970184;28;20950;-69
2020/12/20 12:34:27;;;;;;;18.45;6.35;;;7.60;99.90;;;;;;4968426;28;20574;-68
2020/12/20 12:36:53;;;;;;;20.67;8.43;;;7.70;99.90;;;;;;4971877;28;20285;-69
2020/12/20 12:39:19;;;;;;;22.05;7.70;;;7.90;99.90;;;;;;4970842;28;20208;-69
2020/12/20 12:41:45;;;;;;;17.63;7.32;;;7.90;99.90;;;;;;4971050;28;21623;-69
2020/12/20 12:44:10;;;;;;;23.02;7.00;;;7.90;99.90;;;;;;4971435;28;20215;-69
2020/12/20 12:46:37;;;;;;;27.27;7.95;;;7.80;99.90;;;;;;4943254;28;20223;-68